Time;durP1;ratioP1;P1;durP2;ratioP2;P2;SDS_P1;SDS_P2;PMS_P1;PMS_P2;Temp;Humidity;BMP_temperature;BMP_pressure;BME280_temperature;BME280_humidity;BME280_pressure;Samples;Min_cycle;Max_cycle;Signal;HPM_P1;HPM_P2
2022/12/11 00:00:08;;;;;;;23.80;8.90;;;0.40;99.90;;;;;;4995370;28;20113;-65
2022/12/11 00:02:34;;;;;;;25.90;9.95;;;0.50;99.90;;;;;;4995802;28;20031;-65
2022/12/11 00:05:00;;;;;;;20.15;9.25;;;0.40;99.90;;;;;;4996102;28;20037;-65
2022/12/11 00:07:25;;;;;;;26.70;9.90;;;0.40;99.90;;;;;;4996949;28;20089;-65
2022/12/11 00:09:51;;;;;;;27.60;10.20;;;0.40;99.90;;;;;;4995725;28;20026;-65
2022/12/11 00:12:16;;;;;;;25.33;8.93;;;0.40;99.90;;;;;;4998662;28;20022;-66
2022/12/11 00:14:42;;;;;;;28.05;9.77;;;0.30;99.90;;;;;;4995891;28;20109;-66
2022/12/11 00:17:07;;;;;;;24.65;10.88;;;0.40;99.90;;;;;;4996940;28;20026;-66
2022/12/11 00:19:33;;;;;;;21.33;8.82;;;0.40;99.90;;;;;;4997081;28;20085;-66
2022/12/11 00:21:58;;;;;;;24.38;7.88;;;0.40;99.90;;;;;;4995566;28;20492;-66
2022/12/11 00:24:24;;;;;;;25.92;8.90;;;0.50;99.90;;;;;;4995598;28;20109;-67
2022/12/11 00:26:50;;;;;;;20.48;8.75;;;0.60;99.90;;;;;;4996317;28;20019;-67
2022/12/11 00:29:15;;;;;;;18.40;8.38;;;0.70;99.90;;;;;;4995268;28;20034;-66
2022/12/11 00:31:41;;;;;;;21.73;8.80;;;0.60;99.90;;;;;;4995429;28;20022;-66
2022/12/11 00:34:07;;;;;;;18.08;8.52;;;0.30;99.90;;;;;;4995361;28;20077;-66
2022/12/11 00:36:33;;;;;;;23.02;9.50;;;0.20;99.90;;;;;;4996692;28;20022;-66
2022/12/11 00:39:00;;;;;;;22.90;8.75;;;0.40;99.90;;;;;;4996887;28;20037;-66
2022/12/11 00:41:26;;;;;;;21.98;7.97;;;0.50;99.90;;;;;;4996369;28;20033;-66
2022/12/11 00:43:51;;;;;;;17.98;8.68;;;0.60;99.90;;;;;;4995098;28;20022;-66
2022/12/11 00:46:17;;;;;;;28.02;9.57;;;0.40;99.90;;;;;;4995795;28;20026;-66
2022/12/11 00:48:43;;;;;;;18.55;8.55;;;0.40;99.90;;;;;;4995932;28;20027;-66
2022/12/11 00:51:09;;;;;;;19.67;8.27;;;0.30;99.90;;;;;;4996737;28;20157;-66
2022/12/11 00:53:36;;;;;;;19.30;8.25;;;0.40;99.90;;;;;;4995282;28;20037;-66
2022/12/11 00:56:08;;;;;;;23.38;8.68;;;0.50;99.90;;;;;;4996238;28;20058;-66
2022/12/11 00:59:12;;;;;;;20.67;8.77;;;0.50;99.90;;;;;;4994985;28;20034;-66
2022/12/11 01:01:37;;;;;;;22.58;8.05;;;0.50;99.90;;;;;;4995593;28;20041;-66
2022/12/11 01:04:03;;;;;;;22.48;8.07;;;0.60;99.90;;;;;;4995913;28;20097;-66
2022/12/11 01:06:29;;;;;;;20.42;8.23;;;0.60;99.90;;;;;;4997115;28;20029;-66
2022/12/11 01:11:41;;;;;;;17.48;8.90;;;0.30;99.90;;;;;;4996614;28;20239;-66
2022/12/11 01:14:07;;;;;;;20.17;8.32;;;0.30;99.90;;;;;;4996436;28;20026;-66
2022/12/11 01:16:33;;;;;;;19.15;7.90;;;0.10;99.90;;;;;;4995375;28;20089;-66
2022/12/11 01:18:59;;;;;;;16.17;7.43;;;-0.20;99.90;;;;;;4995215;28;20046;-66
2022/12/11 01:21:25;;;;;;;20.60;7.90;;;-0.20;99.90;;;;;;4996180;28;20174;-66
2022/12/11 01:23:51;;;;;;;21.27;8.30;;;-0.20;99.90;;;;;;4996815;28;20027;-66
2022/12/11 01:26:17;;;;;;;17.88;7.82;;;-0.40;99.90;;;;;;4995362;28;20030;-66
2022/12/11 01:28:43;;;;;;;27.52;9.25;;;-0.40;99.90;;;;;;4994706;28;20049;-66
2022/12/11 01:31:17;;;;;;;21.17;8.38;;;-0.30;99.90;;;;;;4994184;28;20393;-66
2022/12/11 01:33:43;;;;;;;17.90;7.80;;;-0.10;99.90;;;;;;4994959;28;20029;-66
2022/12/11 01:36:12;;;;;;;19.00;7.97;;;-0.10;99.90;;;;;;4994369;28;20102;-66
2022/12/11 01:38:38;;;;;;;20.30;7.97;;;0.00;99.90;;;;;;4994062;28;20083;-66
2022/12/11 01:41:04;;;;;;;18.83;7.82;;;0.10;99.90;;;;;;4994542;28;20026;-66
2022/12/11 01:43:29;;;;;;;19.23;7.38;;;0.20;99.90;;;;;;4994126;28;20184;-66
2022/12/11 01:45:55;;;;;;;18.02;7.85;;;0.30;99.90;;;;;;4994638;28;20076;-66
2022/12/11 01:48:24;;;;;;;20.52;8.35;;;0.30;99.90;;;;;;4993722;28;20037;-66
2022/12/11 01:50:53;;;;;;;25.75;8.77;;;0.30;99.90;;;;;;4994139;28;20029;-66
2022/12/11 01:53:25;;;;;;;16.38;8.27;;;0.30;99.90;;;;;;4995068;28;20018;-66
2022/12/11 01:55:53;;;;;;;17.02;7.65;;;0.40;99.90;;;;;;4995781;28;20037;-66
2022/12/11 01:58:20;;;;;;;20.25;7.50;;;0.50;99.90;;;;;;4994247;28;20026;-66
2022/12/11 02:00:46;;;;;;;22.70;8.20;;;0.50;99.90;;;;;;4995562;28;20034;-66
2022/12/11 02:03:12;;;;;;;19.98;7.72;;;0.50;99.90;;;;;;4994823;28;20134;-66
2022/12/11 02:05:37;;;;;;;17.02;7.88;;;0.20;99.90;;;;;;4994570;28;20030;-66
2022/12/11 02:08:05;;;;;;;20.13;8.65;;;0.10;99.90;;;;;;4993271;28;20032;-66
2022/12/11 02:11:03;;;;;;;22.02;7.57;;;0.20;99.90;;;;;;4994007;28;20073;-66
2022/12/11 02:13:48;;;;;;;18.52;8.23;;;0.20;99.90;;;;;;4994769;28;20018;-66
2022/12/11 02:16:34;;;;;;;22.00;8.75;;;0.20;99.90;;;;;;4995581;28;20034;-66
2022/12/11 02:19:06;;;;;;;19.45;8.52;;;0.10;99.90;;;;;;4994555;28;20033;-66
2022/12/11 02:21:38;;;;;;;18.58;7.85;;;0.00;99.90;;;;;;4995478;28;20033;-66
2022/12/11 02:24:19;;;;;;;21.35;8.65;;;0.20;99.90;;;;;;4993738;28;20026;-66
2022/12/11 02:27:22;;;;;;;20.88;8.77;;;0.40;99.90;;;;;;4994253;28;20089;-66
2022/12/11 02:30:19;;;;;;;21.23;7.85;;;0.40;99.90;;;;;;4993261;28;20177;-66
2022/12/11 02:32:48;;;;;;;18.67;8.15;;;0.40;99.90;;;;;;4994209;28;20157;-66
2022/12/11 02:35:29;;;;;;;17.45;8.13;;;0.60;99.90;;;;;;4993728;28;20023;-66
2022/12/11 02:37:59;;;;;;;21.65;8.07;;;0.70;99.90;;;;;;4994895;28;20091;-66
2022/12/11 02:40:29;;;;;;;22.02;8.30;;;0.80;99.90;;;;;;4994852;28;20022;-66
2022/12/11 02:42:57;;;;;;;17.63;7.45;;;0.80;99.90;;;;;;4993947;28;20165;-66
2022/12/11 02:45:24;;;;;;;24.42;9.13;;;0.80;99.90;;;;;;4993629;28;20023;-66
2022/12/11 02:47:51;;;;;;;20.55;8.65;;;0.80;99.90;;;;;;4994107;28;20026;-66
2022/12/11 02:50:20;;;;;;;25.65;9.55;;;0.80;99.90;;;;;;4993720;28;20026;-66
2022/12/11 02:52:48;;;;;;;24.40;9.68;;;0.90;99.90;;;;;;4994024;28;20022;-66
2022/12/11 02:55:15;;;;;;;25.30;10.05;;;1.00;99.90;;;;;;4994792;28;20026;-66
2022/12/11 02:57:50;;;;;;;30.52;10.52;;;1.00;99.90;;;;;;4995109;28;20019;-66
2022/12/11 03:00:15;;;;;;;23.80;10.50;;;1.00;99.90;;;;;;4993850;28;20034;-66
2022/12/11 03:02:42;;;;;;;25.80;10.18;;;1.00;99.90;;;;;;4994986;28;20053;-66
2022/12/11 03:05:10;;;;;;;25.73;9.48;;;1.00;99.90;;;;;;4994183;28;20019;-66
2022/12/11 03:07:38;;;;;;;23.67;9.98;;;1.00;99.90;;;;;;4994379;28;20036;-66
2022/12/11 03:10:07;;;;;;;24.23;10.13;;;1.00;99.90;;;;;;4993381;28;20025;-66
2022/12/11 03:12:36;;;;;;;25.35;10.80;;;1.00;99.90;;;;;;4993761;28;20026;-66
2022/12/11 03:15:08;;;;;;;27.13;10.88;;;0.90;99.90;;;;;;4993363;28;20489;-66
2022/12/11 03:18:12;;;;;;;28.02;11.30;;;1.00;99.90;;;;;;4993404;28;20023;-66
2022/12/11 03:20:46;;;;;;;32.58;11.90;;;0.90;99.90;;;;;;4997316;28;20050;-66
2022/12/11 03:23:15;;;;;;;27.80;11.63;;;0.90;99.90;;;;;;4998067;28;20042;-66
2022/12/11 03:25:50;;;;;;;34.42;11.60;;;1.00;99.90;;;;;;4998370;28;20050;-67
2022/12/11 03:28:21;;;;;;;28.38;12.05;;;1.00;99.90;;;;;;4997676;28;20030;-66
2022/12/11 03:30:50;;;;;;;27.95;11.70;;;1.00;99.90;;;;;;4996817;28;20076;-67
2022/12/11 03:33:25;;;;;;;34.72;12.38;;;1.00;99.90;;;;;;4997812;28;20076;-67
2022/12/11 03:35:59;;;;;;;34.63;12.35;;;1.00;99.90;;;;;;4996959;28;20022;-66
2022/12/11 03:38:35;;;;;;;30.35;12.48;;;1.00;99.90;;;;;;4998147;28;20032;-66
2022/12/11 03:41:03;;;;;;;30.95;11.60;;;0.90;99.90;;;;;;4996648;28;20026;-66
2022/12/11 03:43:30;;;;;;;31.05;12.77;;;0.90;99.90;;;;;;4996161;28;20029;-66
2022/12/11 03:45:58;;;;;;;28.30;10.85;;;0.70;99.90;;;;;;4997875;28;20049;-66
2022/12/11 03:48:29;;;;;;;27.45;11.48;;;0.60;99.90;;;;;;4996045;28;20030;-66
2022/12/11 03:50:56;;;;;;;26.70;10.57;;;0.60;99.90;;;;;;4996169;28;20019;-66
2022/12/11 03:53:24;;;;;;;26.83;10.63;;;0.60;99.90;;;;;;4996368;28;20022;-66
2022/12/11 03:55:50;;;;;;;31.60;11.98;;;0.60;99.90;;;;;;4997240;28;20095;-66
2022/12/11 03:58:16;;;;;;;32.78;11.40;;;0.60;99.90;;;;;;4997209;28;20080;-66
2022/12/11 04:00:41;;;;;;;33.83;11.15;;;0.60;99.90;;;;;;4997258;28;20046;-66
2022/12/11 04:03:13;;;;;;;30.67;12.10;;;0.70;99.90;;;;;;4997172;28;20034;-66
2022/12/11 04:05:47;;;;;;;27.77;10.88;;;0.70;99.90;;;;;;4996260;28;20050;-66
2022/12/11 04:08:13;;;;;;;25.92;11.15;;;0.80;99.90;;;;;;4995875;28;20039;-66
2022/12/11 04:10:40;;;;;;;23.83;10.68;;;1.00;99.90;;;;;;4995868;28;20030;-66
2022/12/11 04:13:06;;;;;;;23.80;9.93;;;1.10;99.90;;;;;;4996270;28;20413;-66
2022/12/11 04:15:32;;;;;;;30.63;11.23;;;1.00;99.90;;;;;;4996625;28;20022;-66
2022/12/11 04:26:18;;;;;;;30.15;12.27;;;0.60;99.90;;;;;;4996987;28;20042;-66
2022/12/11 04:28:45;;;;;;;33.63;12.27;;;0.70;99.90;;;;;;4994745;28;20037;-66
2022/12/11 04:31:19;;;;;;;31.13;12.00;;;0.60;99.90;;;;;;4994195;28;20027;-66
2022/12/11 04:33:45;;;;;;;29.17;10.63;;;0.60;99.90;;;;;;4996305;28;20029;-66
2022/12/11 04:36:12;;;;;;;27.48;10.32;;;0.60;99.90;;;;;;4995022;28;20022;-66
2022/12/11 04:38:37;;;;;;;27.67;10.65;;;0.70;99.90;;;;;;4994896;28;20117;-66
2022/12/11 04:41:06;;;;;;;33.17;12.35;;;0.60;99.90;;;;;;4994855;28;20129;-66
2022/12/11 04:43:31;;;;;;;30.40;12.23;;;0.50;99.90;;;;;;4994876;28;20026;-66
2022/12/11 04:46:12;;;;;;;27.30;11.75;;;0.50;99.90;;;;;;4996059;28;20030;-66
2022/12/11 04:48:38;;;;;;;31.10;11.45;;;0.40;99.90;;;;;;4994685;28;20034;-66
2022/12/11 04:51:04;;;;;;;30.05;10.65;;;0.60;99.90;;;;;;4994663;28;20045;-66
2022/12/11 04:53:30;;;;;;;29.95;10.68;;;0.60;99.90;;;;;;4995719;28;20113;-66
2022/12/11 04:55:56;;;;;;;28.58;11.60;;;0.60;99.90;;;;;;4994565;28;20117;-66
2022/12/11 04:58:22;;;;;;;29.45;11.98;;;0.60;99.90;;;;;;4996017;28;20050;-66
2022/12/11 05:00:48;;;;;;;28.92;11.52;;;0.40;99.90;;;;;;4994543;28;20031;-66
2022/12/11 05:03:14;;;;;;;28.48;10.18;;;0.30;99.90;;;;;;4995707;28;20042;-66
2022/12/11 05:05:39;;;;;;;27.13;9.73;;;0.20;99.90;;;;;;4994784;28;20026;-66
2022/12/11 05:08:05;;;;;;;30.85;11.25;;;0.10;99.90;;;;;;4994564;28;20030;-66
2022/12/11 05:10:31;;;;;;;32.75;10.93;;;-0.10;99.90;;;;;;4994193;28;20080;-66
2022/12/11 05:12:56;;;;;;;27.83;11.20;;;-0.10;99.90;;;;;;4994331;28;20101;-66
2022/12/11 05:15:22;;;;;;;24.80;9.63;;;-0.10;99.90;;;;;;4994324;28;20040;-66
2022/12/11 05:17:48;;;;;;;23.55;9.07;;;0.00;99.90;;;;;;4994208;28;20022;-66
2022/12/11 05:20:13;;;;;;;27.60;10.25;;;0.00;99.90;;;;;;4995386;28;20034;-66
2022/12/11 05:22:39;;;;;;;25.42;9.23;;;0.00;99.90;;;;;;4994449;28;20064;-66
2022/12/11 05:25:06;;;;;;;25.08;9.77;;;0.00;99.90;;;;;;4994179;28;20026;-66
2022/12/11 05:27:32;;;;;;;25.73;9.90;;;0.00;99.90;;;;;;4995210;28;20029;-66
2022/12/11 05:29:58;;;;;;;31.48;10.20;;;0.10;99.90;;;;;;4995158;28;20026;-66
2022/12/11 05:32:23;;;;;;;24.60;9.25;;;0.00;99.90;;;;;;4994725;28;20018;-66
2022/12/11 05:34:49;;;;;;;27.67;10.68;;;0.00;99.90;;;;;;4994969;28;20022;-66
2022/12/11 05:37:15;;;;;;;33.67;10.30;;;0.00;99.90;;;;;;4995581;28;20065;-66
2022/12/11 05:39:40;;;;;;;26.25;10.13;;;0.00;99.90;;;;;;4994083;28;20066;-66
2022/12/11 05:42:06;;;;;;;29.17;10.45;;;-0.10;99.90;;;;;;4994997;28;20034;-66
2022/12/11 05:44:31;;;;;;;30.27;11.15;;;-0.20;99.90;;;;;;4994896;28;20030;-66
2022/12/11 05:46:57;;;;;;;28.30;11.00;;;-0.10;99.90;;;;;;4993599;28;20064;-66
2022/12/11 05:49:22;;;;;;;30.40;10.63;;;-0.10;99.90;;;;;;4994662;28;20031;-66
2022/12/11 05:51:48;;;;;;;27.23;11.13;;;-0.20;99.90;;;;;;4994654;28;20026;-66
2022/12/11 05:54:13;;;;;;;26.45;9.55;;;-0.10;99.90;;;;;;4993835;28;20027;-66
2022/12/11 05:56:39;;;;;;;26.45;10.07;;;-0.10;99.90;;;;;;4993430;28;20033;-66
2022/12/11 05:59:05;;;;;;;25.17;9.52;;;-0.10;99.90;;;;;;4993834;28;20030;-66
2022/12/11 06:01:37;;;;;;;32.45;11.02;;;-0.20;99.90;;;;;;4993230;28;20038;-66
2022/12/11 06:04:05;;;;;;;23.88;10.68;;;-0.20;99.90;;;;;;4994589;28;20058;-66
2022/12/11 06:06:32;;;;;;;28.77;10.32;;;-0.30;99.90;;;;;;4993661;28;20030;-66
2022/12/11 06:08:59;;;;;;;30.40;10.88;;;-0.20;99.90;;;;;;4993029;28;20026;-66
2022/12/11 06:11:27;;;;;;;32.92;11.38;;;-0.20;99.90;;;;;;4993998;28;20080;-66
2022/12/11 06:13:53;;;;;;;28.45;11.07;;;-0.20;99.90;;;;;;4993160;28;20038;-66
2022/12/11 06:16:19;;;;;;;21.90;9.52;;;-0.30;99.90;;;;;;4994446;28;20026;-66
2022/12/11 06:18:45;;;;;;;29.33;11.75;;;-0.30;99.90;;;;;;4994202;28;20101;-66
2022/12/11 06:21:17;;;;;;;26.52;11.40;;;-0.30;99.90;;;;;;4994281;28;20085;-66
2022/12/11 06:23:45;;;;;;;26.50;10.13;;;-0.20;99.90;;;;;;4993339;28;20033;-66
2022/12/11 06:26:12;;;;;;;31.23;11.40;;;-0.10;99.90;;;;;;4993158;28;20466;-66
2022/12/11 06:28:37;;;;;;;33.22;11.82;;;-0.10;99.90;;;;;;4992730;28;20040;-66
2022/12/11 06:31:04;;;;;;;27.40;11.10;;;0.00;99.90;;;;;;4994011;28;20132;-66
2022/12/11 06:33:30;;;;;;;27.38;10.95;;;0.10;99.90;;;;;;4993502;28;20026;-66
2022/12/11 06:35:55;;;;;;;30.70;11.98;;;0.20;99.90;;;;;;4992809;28;20545;-66
2022/12/11 06:38:22;;;;;;;29.95;11.93;;;0.50;99.90;;;;;;4994303;28;20030;-66
2022/12/11 06:40:55;;;;;;;27.30;11.23;;;0.60;99.90;;;;;;4992766;28;20409;-66
2022/12/11 06:43:21;;;;;;;28.08;10.68;;;0.60;99.90;;;;;;4993277;28;20026;-66
2022/12/11 06:45:47;;;;;;;30.33;11.43;;;0.70;99.90;;;;;;4994050;28;20504;-66
2022/12/11 06:48:12;;;;;;;31.30;13.20;;;0.60;99.90;;;;;;4993777;28;20557;-66
2022/12/11 06:50:38;;;;;;;29.13;10.45;;;0.70;99.90;;;;;;4992734;28;20053;-66
2022/12/11 06:53:03;;;;;;;29.23;11.32;;;0.70;99.90;;;;;;4992710;28;20019;-66
2022/12/11 06:55:29;;;;;;;34.05;12.10;;;0.60;99.90;;;;;;4997690;28;20022;-66
2022/12/11 06:57:54;;;;;;;32.28;12.38;;;0.30;99.90;;;;;;4999297;28;20030;-66
2022/12/11 07:00:20;;;;;;;35.63;12.40;;;0.10;99.90;;;;;;5000324;28;20076;-66
2022/12/11 07:02:45;;;;;;;36.45;12.27;;;0.10;99.90;;;;;;5000383;28;20066;-66
2022/12/11 07:05:11;;;;;;;31.13;11.48;;;0.10;99.90;;;;;;4999129;28;20034;-66
2022/12/11 07:07:37;;;;;;;29.67;12.10;;;0.20;99.90;;;;;;5000098;28;20029;-66
2022/12/11 07:10:04;;;;;;;28.13;11.35;;;0.30;99.90;;;;;;4999889;28;20019;-66
2022/12/11 07:12:29;;;;;;;32.58;12.27;;;0.30;99.90;;;;;;4999047;28;20033;-66
2022/12/11 07:14:55;;;;;;;28.35;10.18;;;0.30;99.90;;;;;;4999014;28;20019;-66
2022/12/11 07:17:20;;;;;;;27.25;11.48;;;0.30;99.90;;;;;;4998981;28;20018;-66
2022/12/11 07:19:46;;;;;;;28.73;11.93;;;0.30;99.90;;;;;;4998950;28;20026;-66
2022/12/11 07:22:11;;;;;;;30.45;10.48;;;0.40;99.90;;;;;;4999816;28;20023;-66
2022/12/11 07:24:39;;;;;;;30.55;11.73;;;0.30;99.90;;;;;;4999186;28;20030;-66
2022/12/11 07:27:04;;;;;;;30.20;11.40;;;0.20;99.90;;;;;;5000270;28;20101;-66
2022/12/11 07:29:30;;;;;;;28.15;12.13;;;0.20;99.90;;;;;;4999103;28;20094;-66
2022/12/11 07:31:55;;;;;;;32.63;12.10;;;0.30;99.90;;;;;;5000147;28;20076;-66
2022/12/11 07:34:21;;;;;;;32.90;12.30;;;0.40;99.90;;;;;;4998883;28;20019;-66
2022/12/11 07:36:46;;;;;;;34.05;12.18;;;0.50;99.90;;;;;;4998787;28;20029;-66
2022/12/11 07:39:12;;;;;;;31.00;12.98;;;0.50;99.90;;;;;;4998723;28;20032;-66
2022/12/11 07:41:38;;;;;;;32.80;12.25;;;0.50;99.90;;;;;;5000240;28;20072;-66
2022/12/11 07:44:04;;;;;;;31.92;12.35;;;0.50;99.90;;;;;;4999265;28;20033;-66
2022/12/11 07:46:31;;;;;;;33.80;12.55;;;0.50;99.90;;;;;;4998756;28;20023;-66
2022/12/11 07:48:59;;;;;;;25.95;11.20;;;0.40;99.90;;;;;;4998831;28;20029;-66
2022/12/11 07:51:31;;;;;;;32.28;12.10;;;0.40;99.90;;;;;;4999054;28;20026;-66
2022/12/11 07:54:01;;;;;;;32.92;11.85;;;0.30;99.90;;;;;;4998692;28;20027;-66
2022/12/11 07:56:28;;;;;;;36.40;12.40;;;0.30;99.90;;;;;;4999369;28;20031;-66
2022/12/11 07:58:53;;;;;;;30.63;11.95;;;0.40;99.90;;;;;;4998492;28;20058;-66
2022/12/11 08:01:22;;;;;;;32.25;11.63;;;0.50;99.90;;;;;;4998664;28;20075;-66
2022/12/11 08:03:48;;;;;;;27.33;11.40;;;0.40;99.90;;;;;;4999917;28;20545;-66
2022/12/11 08:06:14;;;;;;;31.17;12.98;;;0.40;99.90;;;;;;4996378;28;20023;-66
2022/12/11 08:08:40;;;;;;;31.40;11.73;;;0.50;99.90;;;;;;4996742;28;20038;-66
2022/12/11 08:11:09;;;;;;;31.02;10.88;;;0.50;99.90;;;;;;4996001;28;20023;-66
2022/12/11 08:13:36;;;;;;;36.00;11.90;;;0.30;99.90;;;;;;4996138;28;20083;-67
2022/12/11 08:16:07;;;;;;;37.45;13.27;;;0.30;99.90;;;;;;4995719;28;20022;-66
2022/12/11 08:18:33;;;;;;;34.83;12.65;;;0.30;99.90;;;;;;4996715;28;20054;-66
2022/12/11 08:21:04;;;;;;;30.10;12.02;;;0.30;99.90;;;;;;4995590;28;20038;-66
2022/12/11 08:23:30;;;;;;;29.90;11.13;;;0.30;99.90;;;;;;4995514;28;20027;-66
2022/12/11 08:25:55;;;;;;;35.78;11.75;;;0.20;99.90;;;;;;4996484;28;20030;-66
2022/12/11 08:28:21;;;;;;;32.60;12.50;;;0.30;99.90;;;;;;4996557;28;20034;-65
2022/12/11 08:30:46;;;;;;;35.38;11.93;;;0.40;99.90;;;;;;4995118;28;20425;-66
2022/12/11 08:33:12;;;;;;;31.80;12.07;;;0.50;99.90;;;;;;4995028;28;20031;-66
2022/12/11 08:35:38;;;;;;;31.45;11.15;;;0.60;99.90;;;;;;4995310;28;20022;-66
2022/12/11 08:38:04;;;;;;;30.48;11.55;;;0.80;99.90;;;;;;4996185;28;20023;-65
2022/12/11 08:40:29;;;;;;;30.65;10.75;;;0.90;99.90;;;;;;4995151;28;20129;-66
2022/12/11 08:42:55;;;;;;;29.42;10.65;;;0.90;99.90;;;;;;4994841;28;20057;-66
2022/12/11 08:45:20;;;;;;;25.25;10.63;;;1.00;99.90;;;;;;4996076;28;20030;-66
2022/12/11 08:47:46;;;;;;;24.15;10.90;;;1.00;99.90;;;;;;4994724;28;20106;-66
2022/12/11 08:50:12;;;;;;;24.23;9.77;;;1.00;99.90;;;;;;4994960;28;20030;-66
2022/12/11 08:52:37;;;;;;;27.90;11.02;;;1.00;99.90;;;;;;4995959;28;20030;-67
2022/12/11 08:55:03;;;;;;;25.80;9.73;;;0.90;99.90;;;;;;4994726;28;20081;-67
2022/12/11 08:57:29;;;;;;;24.35;9.77;;;1.00;99.90;;;;;;4995800;28;20023;-67
2022/12/11 08:59:54;;;;;;;24.77;9.75;;;1.10;99.90;;;;;;4994507;28;20027;-67
2022/12/11 09:02:20;;;;;;;25.88;10.65;;;1.20;99.90;;;;;;4996176;28;20490;-67
2022/12/11 09:04:45;;;;;;;27.80;11.63;;;1.30;99.90;;;;;;4994529;28;20026;-67
2022/12/11 09:07:11;;;;;;;25.42;9.80;;;1.30;99.90;;;;;;4995139;28;20026;-67
2022/12/11 09:09:37;;;;;;;24.60;10.10;;;1.30;99.90;;;;;;4994703;28;20023;-67
2022/12/11 09:12:03;;;;;;;27.40;10.75;;;1.40;99.90;;;;;;4994428;28;20464;-66
2022/12/11 09:14:29;;;;;;;23.25;9.77;;;1.40;99.90;;;;;;4994321;28;20022;-66
2022/12/11 09:16:54;;;;;;;32.08;12.18;;;1.50;99.90;;;;;;4995318;28;20033;-66
2022/12/11 09:19:20;;;;;;;28.52;11.85;;;1.60;99.90;;;;;;4994693;28;20022;-66
2022/12/11 09:21:45;;;;;;;25.17;10.05;;;1.60;99.90;;;;;;4995721;28;20053;-66
2022/12/11 09:24:12;;;;;;;26.75;11.20;;;1.80;99.90;;;;;;4994160;28;20022;-66
2022/12/11 09:26:38;;;;;;;33.00;12.48;;;1.80;99.90;;;;;;4994397;28;20022;-66
2022/12/11 09:29:04;;;;;;;27.98;10.68;;;1.90;99.90;;;;;;4994133;28;20026;-66
2022/12/11 09:31:32;;;;;;;27.58;11.32;;;1.90;99.90;;;;;;4993934;28;20022;-66
2022/12/11 09:34:00;;;;;;;22.77;10.00;;;2.00;99.90;;;;;;4993870;28;20405;-66
2022/12/11 09:36:26;;;;;;;25.55;10.20;;;2.00;99.90;;;;;;4994436;28;20045;-66
2022/12/11 09:38:52;;;;;;;24.17;10.30;;;2.10;99.90;;;;;;4995283;28;20568;-66
2022/12/11 09:41:21;;;;;;;24.92;10.15;;;2.00;99.90;;;;;;4993865;28;20029;-66
2022/12/11 09:44:13;;;;;;;26.70;10.75;;;1.90;99.90;;;;;;4995035;28;20030;-66
2022/12/11 09:46:40;;;;;;;28.63;10.27;;;1.80;99.90;;;;;;4994978;28;20030;-66
2022/12/11 09:49:31;;;;;;;24.90;9.70;;;1.80;99.90;;;;;;4994811;28;20037;-66
2022/12/11 09:52:18;;;;;;;27.60;11.43;;;1.80;99.90;;;;;;4994567;28;20069;-66
2022/12/11 09:54:51;;;;;;;27.90;10.43;;;1.80;99.90;;;;;;4993755;28;20096;-66
2022/12/11 09:57:30;;;;;;;28.60;10.35;;;1.90;99.90;;;;;;4994680;28;20117;-66
2022/12/11 10:00:11;;;;;;;33.85;10.25;;;1.90;99.90;;;;;;4993735;28;20022;-66
2022/12/11 10:03:03;;;;;;;25.52;9.88;;;1.90;99.90;;;;;;4993511;28;20104;-66
2022/12/11 10:05:56;;;;;;;27.98;11.07;;;2.00;99.90;;;;;;4993337;28;20026;-66
2022/12/11 10:08:29;;;;;;;;;;;2.10;99.90;;;;;;4994845;28;20114;-66
2022/12/11 10:10:58;;;;;;;25.45;9.02;;;2.10;99.90;;;;;;4994107;28;19905;-66
2022/12/11 10:13:27;;;;;;;22.73;10.10;;;2.10;99.90;;;;;;4993171;28;20026;-67
2022/12/11 10:16:06;;;;;;;18.15;8.57;;;2.10;99.90;;;;;;4993145;28;20027;-66
2022/12/11 10:18:32;;;;;;;18.83;8.05;;;2.20;99.90;;;;;;4993718;28;20026;-66
2022/12/11 10:21:01;;;;;;;17.98;8.07;;;2.20;99.90;;;;;;4994054;28;20058;-66
2022/12/11 10:23:37;;;;;;;21.20;8.55;;;2.10;99.90;;;;;;4993969;28;20030;-66
2022/12/11 10:26:17;;;;;;;19.45;8.38;;;2.10;99.90;;;;;;4993989;28;20034;-66
2022/12/11 10:28:43;;;;;;;17.20;7.95;;;2.20;99.90;;;;;;4994017;28;20026;-66
2022/12/11 10:31:09;;;;;;;16.88;7.70;;;2.20;99.90;;;;;;4993040;28;20023;-67
2022/12/11 10:34:00;;;;;;;16.10;6.65;;;2.30;99.90;;;;;;4993018;28;20473;-66
2022/12/11 10:36:29;;;;;;;19.38;7.25;;;2.30;99.90;;;;;;4993136;28;20367;-66
2022/12/11 10:38:55;;;;;;;15.73;6.05;;;2.20;99.90;;;;;;4992771;28;20117;-66
2022/12/11 10:41:31;;;;;;;12.60;5.57;;;2.10;99.90;;;;;;4994348;28;20031;-67
2022/12/11 10:43:57;;;;;;;12.88;6.30;;;2.10;99.90;;;;;;4992903;28;20037;-67
2022/12/11 10:46:27;;;;;;;13.93;5.38;;;2.10;99.90;;;;;;4992829;28;20034;-66
2022/12/11 10:48:55;;;;;;;11.98;5.95;;;2.10;99.90;;;;;;4992798;28;20030;-66
2022/12/11 10:51:30;;;;;;;29.15;9.82;;;2.10;99.90;;;;;;4994070;28;20026;-66
2022/12/11 10:54:04;;;;;;;25.33;9.32;;;2.10;99.90;;;;;;4993074;28;20018;-66
2022/12/11 10:56:32;;;;;;;17.00;7.78;;;2.10;99.90;;;;;;4993621;28;20026;-66
2022/12/11 10:59:00;;;;;;;16.23;8.18;;;2.20;99.90;;;;;;4992629;28;20027;-66
2022/12/11 11:01:30;;;;;;;17.05;7.38;;;2.30;99.90;;;;;;4994688;28;20097;-67
2022/12/11 11:04:02;;;;;;;20.95;7.72;;;2.30;99.90;;;;;;4994222;28;20114;-67
2022/12/11 11:06:27;;;;;;;20.75;7.95;;;2.30;99.90;;;;;;4992871;28;20023;-67
2022/12/11 11:08:58;;;;;;;17.45;6.70;;;2.30;99.90;;;;;;4992361;28;20035;-66
2022/12/11 11:11:37;;;;;;;17.88;7.20;;;2.30;99.90;;;;;;4993845;28;20026;-67
2022/12/11 11:14:19;;;;;;;19.17;8.57;;;2.50;99.90;;;;;;4993328;28;20019;-67
2022/12/11 11:16:47;;;;;;;14.73;5.70;;;2.50;99.90;;;;;;4994369;28;20026;-66
2022/12/11 11:19:31;;;;;;;9.20;5.00;;;2.60;99.90;;;;;;4993807;28;20581;-66
2022/12/11 11:22:00;;;;;;;15.95;5.78;;;2.40;99.90;;;;;;4992596;28;20104;-67
2022/12/11 11:24:34;;;;;;;17.50;7.28;;;2.30;99.90;;;;;;4992672;28;20033;-67
2022/12/11 11:27:00;;;;;;;18.92;6.55;;;2.20;99.90;;;;;;4992503;28;20030;-66
2022/12/11 11:29:32;;;;;;;15.65;5.07;;;2.10;99.90;;;;;;4993057;28;20026;-66
2022/12/11 11:32:32;;;;;;;10.80;4.15;;;2.20;99.90;;;;;;4992432;28;20025;-67
2022/12/11 11:35:10;;;;;;;13.40;5.05;;;2.20;99.90;;;;;;4980190;28;20089;-67
2022/12/11 11:37:44;;;;;;;13.90;4.88;;;2.20;99.90;;;;;;4993874;28;20029;-66
2022/12/11 11:40:12;;;;;;;9.82;4.10;;;2.20;99.90;;;;;;4992761;28;20038;-66
2022/12/11 11:42:57;;;;;;;10.63;3.55;;;2.10;99.90;;;;;;4996068;28;20033;-66
2022/12/11 11:45:33;;;;;;;11.73;4.90;;;2.00;99.90;;;;;;4997255;28;20025;-66
2022/12/11 11:48:09;;;;;;;17.20;5.20;;;1.90;99.90;;;;;;4997454;28;20036;-67
2022/12/11 11:50:35;;;;;;;11.80;4.65;;;1.90;99.90;;;;;;4996063;28;20113;-66
2022/12/11 11:53:16;;;;;;;9.05;3.85;;;2.00;99.90;;;;;;4995922;28;20125;-66
2022/12/11 11:56:04;;;;;;;8.25;3.75;;;1.90;99.90;;;;;;4996426;28;20019;-66
2022/12/11 11:58:46;;;;;;;10.65;4.25;;;2.00;99.90;;;;;;4996679;28;20153;-66
2022/12/11 12:01:16;;;;;;;8.90;3.87;;;1.90;99.90;;;;;;4995801;28;20066;-66
2022/12/11 12:03:42;;;;;;;8.15;3.55;;;1.90;99.90;;;;;;4995640;28;20026;-66
2022/12/11 12:06:32;;;;;;;8.02;3.45;;;2.00;99.90;;;;;;4996568;28;20085;-66
2022/12/11 12:09:22;;;;;;;15.48;4.40;;;2.20;99.90;;;;;;4997171;28;20026;-66
2022/12/11 12:11:48;;;;;;;9.25;4.45;;;2.20;99.90;;;;;;4996126;28;20026;-67
2022/12/11 12:14:24;;;;;;;10.52;3.50;;;2.20;99.90;;;;;;4995455;28;20027;-67
2022/12/11 12:17:19;;;;;;;10.88;4.03;;;2.20;99.90;;;;;;4996722;28;20030;-68
2022/12/11 12:20:02;;;;;;;11.75;4.57;;;2.10;99.90;;;;;;4995907;28;20026;-67
2022/12/11 12:22:52;;;;;;;13.45;4.60;;;2.20;99.90;;;;;;4995372;28;20050;-67
2022/12/11 12:25:33;;;;;;;13.18;4.78;;;2.20;99.90;;;;;;4996789;28;20073;-67
2022/12/11 12:28:36;;;;;;;9.23;3.78;;;2.20;99.90;;;;;;4995220;28;20081;-67
2022/12/11 12:34:39;;;;;;;11.35;3.72;;;2.40;99.90;;;;;;4996782;28;20434;-67
2022/12/11 12:37:29;;;;;;;10.93;3.80;;;2.40;99.90;;;;;;4995134;28;20018;-67
2022/12/11 12:40:16;;;;;;;7.90;3.58;;;2.40;99.90;;;;;;4996207;28;20030;-68
2022/12/11 12:43:09;;;;;;;16.05;4.63;;;2.40;99.90;;;;;;4996269;28;20026;-68
2022/12/11 12:46:13;;;;;;;10.88;4.13;;;2.30;99.90;;;;;;4995801;28;20026;-67
2022/12/11 12:48:39;;;;;;;14.55;4.93;;;2.20;99.90;;;;;;4994766;28;20026;-67
2022/12/11 12:51:05;;;;;;;10.15;4.78;;;2.10;99.90;;;;;;4994810;28;20080;-67
2022/12/11 12:53:35;;;;;;;18.67;4.70;;;1.80;99.90;;;;;;4994200;28;20023;-67
2022/12/11 12:56:02;;;;;;;12.45;4.38;;;1.70;99.90;;;;;;4995307;28;20470;-67
2022/12/11 12:58:34;;;;;;;10.27;4.65;;;1.60;99.90;;;;;;4996678;28;20041;-67
2022/12/11 13:01:24;;;;;;;11.88;4.18;;;1.70;99.90;;;;;;4995130;28;20046;-67
2022/12/11 13:03:49;;;;;;;13.77;5.13;;;1.80;99.90;;;;;;4995845;28;20026;-67
2022/12/11 13:06:26;;;;;;;17.63;5.53;;;1.80;99.90;;;;;;4995668;28;20101;-67
2022/12/11 13:08:52;;;;;;;17.50;6.28;;;1.80;99.90;;;;;;4994332;28;20029;-67